createdAt,value
2018-10-05T00:00:06.141Z,12.27
2018-10-05T00:01:06.128Z,12.20
2018-10-05T00:02:06.114Z,12.21
2018-10-05T00:03:06.101Z,12.05
2018-10-05T00:04:06.106Z,12.09
2018-10-05T00:05:06.081Z,12.12
2018-10-05T00:06:06.067Z,12.04
2018-10-05T00:07:06.056Z,12.09
2018-10-05T00:08:06.056Z,12.12
2018-10-05T00:09:06.044Z,12.02
2018-10-05T00:11:49.979Z,12.01
2018-10-05T00:12:14.235Z,11.95
2018-10-05T00:13:14.222Z,11.78
2018-10-05T00:14:14.223Z,11.88
2018-10-05T00:15:14.200Z,11.85
2018-10-05T00:16:14.192Z,11.96
2018-10-05T00:17:14.178Z,11.94
2018-10-05T00:18:14.171Z,11.98
2018-10-05T00:19:14.168Z,11.95
2018-10-05T00:20:14.142Z,11.95
2018-10-05T00:21:14.132Z,11.91
2018-10-05T00:22:14.123Z,11.79
2018-10-05T00:23:14.117Z,11.82
2018-10-05T00:24:14.114Z,11.78
2018-10-05T00:25:14.089Z,11.85
2018-10-05T00:28:30.540Z,11.88
2018-10-05T00:29:30.536Z,11.83
2018-10-05T00:30:30.514Z,11.78
2018-10-05T00:31:30.505Z,11.78
2018-10-05T00:32:30.556Z,11.80
2018-10-05T00:33:30.482Z,11.80
2018-10-05T00:34:30.482Z,11.73
2018-10-05T00:35:30.464Z,11.69
2018-10-05T00:36:30.448Z,11.69
2018-10-05T00:37:30.437Z,11.58
2018-10-05T00:40:19.413Z,11.49
2018-10-05T00:40:38.637Z,11.43
2018-10-05T00:41:38.621Z,11.52
2018-10-05T00:42:38.611Z,11.42
2018-10-05T00:43:38.602Z,11.36
2018-10-05T00:44:38.588Z,11.42
2018-10-05T00:45:38.589Z,11.52
2018-10-05T00:46:38.564Z,11.46
2018-10-05T00:49:57.249Z,11.44
2018-10-05T00:50:55.012Z,11.47
2018-10-05T00:51:54.997Z,11.43
2018-10-05T00:52:54.989Z,11.46
2018-10-05T00:53:54.980Z,11.36
2018-10-05T00:54:55.747Z,11.36
2018-10-05T00:55:54.951Z,11.35
2018-10-05T00:56:54.944Z,11.24
2018-10-05T00:57:55.744Z,11.24
2018-10-05T00:58:54.919Z,11.24
2018-10-05T00:59:55.268Z,11.24
2018-10-05T01:00:54.896Z,11.32
2018-10-05T01:01:56.741Z,11.27
2018-10-05T01:02:54.876Z,11.19
2018-10-05T01:06:47.549Z,11.24
2018-10-05T01:07:11.280Z,11.28
2018-10-05T01:08:11.269Z,11.24
2018-10-05T01:10:42.231Z,11.35
2018-10-05T01:11:19.479Z,11.43
2018-10-05T01:12:19.458Z,11.43
2018-10-05T01:13:19.447Z,11.46
2018-10-05T01:14:19.435Z,11.42
2018-10-05T01:15:19.435Z,11.44
2018-10-05T01:16:19.415Z,11.58
2018-10-05T01:17:19.405Z,11.64
2018-10-05T01:18:19.390Z,11.57
2018-10-05T01:19:19.397Z,11.58
2018-10-05T01:20:19.385Z,11.58
2018-10-05T01:21:19.359Z,11.64
2018-10-05T01:22:19.346Z,11.62
2018-10-05T01:23:19.339Z,11.58
2018-10-05T01:24:19.327Z,11.62
2018-10-05T01:25:19.331Z,11.61
2018-10-05T01:26:19.303Z,11.61
2018-10-05T01:27:19.290Z,11.61
2018-10-05T01:28:19.292Z,11.61
2018-10-05T01:29:19.270Z,11.58
2018-10-05T01:30:19.267Z,11.64
2018-10-05T01:31:19.249Z,11.62
2018-10-05T01:32:19.252Z,11.60
2018-10-05T01:33:19.227Z,11.61
2018-10-05T01:34:19.215Z,11.61
2018-10-05T01:35:19.213Z,11.52
2018-10-05T01:36:19.191Z,11.58
2018-10-05T01:37:19.180Z,11.47
2018-10-05T01:38:19.174Z,11.55
2018-10-05T01:39:19.160Z,11.44
2018-10-05T01:40:19.164Z,11.55
2018-10-05T01:41:19.137Z,11.52
2018-10-05T01:42:19.126Z,11.55
2018-10-05T01:45:03.064Z,11.47
2018-10-05T01:45:27.330Z,11.54
2018-10-05T01:46:27.312Z,11.49
2018-10-05T01:47:27.300Z,11.46
2018-10-05T01:48:27.288Z,11.55
2018-10-05T01:51:02.256Z,11.43
2018-10-05T01:51:35.505Z,11.36
2018-10-05T01:52:35.495Z,11.40
2018-10-05T01:53:35.483Z,11.40
2018-10-05T01:54:35.478Z,11.35
2018-10-05T01:55:35.472Z,11.33
2018-10-05T01:56:35.463Z,11.33
2018-10-05T01:57:35.437Z,11.19
2018-10-05T01:58:35.427Z,11.27
2018-10-05T01:59:35.416Z,11.25
2018-10-05T02:00:35.411Z,11.22
2018-10-05T02:01:35.404Z,11.22
2018-10-05T02:02:35.511Z,11.22
2018-10-05T02:03:35.372Z,11.35
2018-10-05T02:04:35.359Z,11.32
2018-10-05T02:06:52.839Z,11.33
2018-10-05T02:07:43.550Z,11.28
2018-10-05T02:08:43.541Z,11.24
2018-10-05T02:09:43.528Z,11.24
2018-10-05T02:10:43.549Z,11.28
2018-10-05T02:11:43.515Z,11.29
2018-10-05T02:12:43.492Z,11.25
2018-10-05T02:13:43.481Z,11.22
2018-10-05T02:14:43.481Z,11.22
2018-10-05T02:15:43.459Z,11.25
2018-10-05T02:16:43.461Z,11.27
2018-10-05T02:17:43.437Z,11.24
2018-10-05T02:20:59.880Z,11.29
2018-10-05T02:21:59.875Z,11.17
2018-10-05T02:22:59.857Z,11.21
2018-10-05T02:23:59.842Z,11.17
2018-10-05T02:24:59.836Z,11.15
2018-10-05T02:25:59.826Z,11.14
2018-10-05T02:26:59.820Z,11.10
2018-10-05T02:27:59.799Z,11.07
2018-10-05T02:28:59.789Z,11.07
2018-10-05T02:29:59.785Z,11.11
2018-10-05T02:30:59.768Z,11.02
2018-10-05T02:31:59.770Z,11.11
2018-10-05T02:32:59.790Z,11.00
2018-10-05T02:33:59.731Z,11.04
2018-10-05T02:34:59.726Z,10.97
2018-10-05T02:35:59.714Z,10.99
2018-10-05T02:36:59.715Z,11.03
2018-10-05T02:37:59.688Z,10.92
2018-10-05T02:38:59.683Z,10.96
2018-10-05T02:39:59.664Z,10.91
2018-10-05T02:42:32.135Z,10.91
2018-10-05T02:43:07.860Z,10.81
2018-10-05T02:44:07.847Z,10.81
2018-10-05T02:45:07.846Z,10.78
2018-10-05T02:46:07.837Z,10.82
2018-10-05T02:47:07.825Z,10.78
2018-10-05T02:49:37.023Z,10.73
2018-10-05T02:50:16.010Z,10.78
2018-10-05T02:51:16.002Z,10.79
2018-10-05T02:52:16.011Z,10.84
2018-10-05T02:53:15.975Z,10.81
2018-10-05T02:54:15.968Z,10.84
2018-10-05T02:55:15.953Z,10.71
2018-10-05T02:56:15.945Z,10.74
2018-10-05T02:57:15.947Z,10.71
2018-10-05T02:58:15.929Z,10.74
2018-10-05T02:59:15.911Z,10.73
2018-10-05T03:00:15.897Z,10.68
2018-10-05T03:01:15.889Z,10.76
2018-10-05T03:02:15.891Z,10.73
2018-10-05T03:03:15.870Z,10.73
2018-10-05T03:04:15.854Z,10.71
2018-10-05T03:05:15.843Z,10.73
2018-10-05T03:06:15.833Z,10.70
2018-10-05T03:07:15.831Z,10.67
2018-10-05T03:08:15.810Z,10.64
2018-10-05T03:09:15.801Z,10.63
2018-10-05T03:10:15.790Z,10.66
2018-10-05T03:11:15.775Z,10.55
2018-10-05T03:12:15.776Z,10.52
2018-10-05T03:13:15.762Z,10.47
2018-10-05T03:14:15.741Z,10.45
2018-10-05T03:15:15.732Z,10.40
2018-10-05T03:16:15.720Z,10.32
2018-10-05T03:17:15.727Z,10.34
2018-10-05T03:18:15.702Z,10.30
2018-10-05T03:19:15.688Z,10.32
2018-10-05T03:20:15.681Z,10.29
2018-10-05T03:21:15.663Z,10.25
2018-10-05T03:22:15.653Z,10.27
2018-10-05T03:23:15.651Z,10.26
2018-10-05T03:24:15.632Z,10.20
2018-10-05T03:25:15.627Z,10.23
2018-10-05T03:26:15.623Z,10.25
2018-10-05T03:27:15.598Z,10.23
2018-10-05T03:28:15.600Z,10.25
2018-10-05T03:29:15.576Z,10.26
2018-10-05T03:30:15.568Z,10.23
2018-10-05T03:31:15.559Z,10.14
2018-10-05T03:32:15.543Z,10.07
2018-10-05T03:33:15.542Z,10.17
2018-10-05T03:34:15.520Z,10.09
2018-10-05T03:35:15.515Z,10.09
2018-10-05T03:36:15.515Z,10.17
2018-10-05T03:37:15.502Z,10.20
2018-10-05T03:38:15.483Z,10.14
2018-10-05T03:39:15.465Z,10.26
2018-10-05T03:40:15.452Z,10.27
2018-10-05T03:41:15.444Z,10.23
2018-10-05T03:42:15.436Z,10.25
2018-10-05T03:43:15.429Z,10.26
2018-10-05T03:44:15.413Z,10.20
2018-10-05T03:45:15.451Z,10.25
2018-10-05T03:46:15.387Z,10.29
2018-10-05T03:47:15.378Z,10.26
2018-10-05T03:48:15.377Z,10.25
2018-10-05T03:49:15.353Z,10.20
2018-10-05T03:50:15.341Z,10.22
2018-10-05T03:51:15.340Z,10.12
2018-10-05T03:52:15.326Z,10.22
2018-10-05T03:53:15.319Z,10.12
2018-10-05T03:54:15.311Z,10.20
2018-10-05T03:55:15.285Z,10.20
2018-10-05T03:56:15.274Z,10.14
2018-10-05T03:57:15.264Z,10.18
2018-10-05T03:58:15.266Z,10.17
2018-10-05T03:59:15.245Z,10.05
2018-10-05T04:00:15.230Z,10.11
2018-10-05T04:01:15.218Z,10.20
2018-10-05T04:02:15.206Z,10.17
2018-10-05T04:03:15.204Z,10.27
2018-10-05T04:04:15.194Z,10.26
2018-10-05T04:05:15.179Z,10.26
2018-10-05T04:06:15.162Z,10.29
2018-10-05T04:07:15.150Z,10.26
2018-10-05T04:08:15.149Z,10.09
2018-10-05T04:09:15.127Z,10.07
2018-10-05T04:10:15.117Z,10.11
2018-10-05T04:11:15.123Z,10.04
2018-10-05T04:12:15.094Z,9.97
2018-10-05T04:13:15.090Z,9.99
2018-10-05T04:14:15.076Z,9.97
2018-10-05T04:15:15.061Z,10.02
2018-10-05T04:16:15.056Z,10.01
2018-10-05T04:17:15.040Z,10.05
2018-10-05T04:18:15.039Z,10.08
2018-10-05T04:19:15.017Z,10.08
2018-10-05T04:20:15.004Z,10.17
2018-10-05T04:21:14.999Z,10.12
2018-10-05T04:22:14.984Z,10.22
2018-10-05T04:23:14.986Z,10.22
2018-10-05T04:24:14.960Z,10.17
2018-10-05T04:25:14.947Z,10.27
2018-10-05T04:26:14.940Z,10.20
2018-10-05T04:27:15.027Z,10.22
2018-10-05T04:28:14.933Z,10.23
2018-10-05T04:29:14.904Z,10.22
2018-10-05T04:30:14.893Z,10.27
2018-10-05T04:31:14.883Z,10.11
2018-10-05T04:32:14.897Z,10.18
2018-10-05T04:33:14.874Z,10.11
2018-10-05T04:34:14.859Z,10.09
2018-10-05T04:35:14.836Z,10.12
2018-10-05T04:36:14.826Z,10.09
2018-10-05T04:37:14.814Z,10.07
2018-10-05T04:38:14.817Z,10.11
2018-10-05T04:39:14.791Z,10.11
2018-10-05T04:40:14.782Z,10.11
2018-10-05T04:41:14.833Z,10.08
2018-10-05T04:42:14.765Z,10.11
2018-10-05T04:43:14.757Z,10.09
2018-10-05T04:44:14.743Z,10.07
2018-10-05T04:45:14.730Z,10.05
2018-10-05T04:46:14.711Z,9.96
2018-10-05T04:47:14.702Z,10.02
2018-10-05T04:48:14.700Z,9.96
2018-10-05T04:49:14.688Z,10.04
2018-10-05T04:50:14.674Z,10.05
2018-10-05T04:51:14.657Z,10.05
2018-10-05T04:52:14.646Z,9.99
2018-10-05T04:53:14.646Z,10.05
2018-10-05T04:54:14.640Z,10.07
2018-10-05T04:55:14.614Z,10.01
2018-10-05T04:56:14.602Z,9.99
2018-10-05T04:57:14.590Z,9.99
2018-10-05T04:58:14.590Z,9.99
2018-10-05T04:59:14.567Z,10.02
2018-10-05T05:00:14.559Z,9.99
2018-10-05T05:01:14.547Z,10.01
2018-10-05T05:02:14.543Z,10.02
2018-10-05T05:03:14.536Z,9.97
2018-10-05T05:04:14.519Z,9.97
2018-10-05T05:05:14.501Z,10.01
2018-10-05T05:06:14.492Z,9.99
2018-10-05T05:07:14.478Z,9.99
2018-10-05T05:08:14.475Z,10.02
2018-10-05T05:09:14.454Z,10.02
2018-10-05T05:10:14.443Z,9.96
2018-10-05T05:11:14.434Z,10.07
2018-10-05T05:12:14.573Z,9.93
2018-10-05T05:13:14.435Z,9.97
2018-10-05T05:14:14.402Z,9.97
2018-10-05T05:15:14.390Z,9.99
2018-10-05T05:16:14.376Z,9.97
2018-10-05T05:17:14.367Z,10.01
2018-10-05T05:18:14.366Z,9.97
2018-10-05T05:19:14.343Z,9.94
2018-10-05T05:20:14.331Z,9.90
2018-10-05T05:21:14.321Z,9.87
2018-10-05T05:22:14.309Z,9.89
2018-10-05T05:23:14.313Z,9.83
2018-10-05T05:26:30.738Z,9.87
2018-10-05T05:27:30.737Z,9.89
2018-10-05T05:28:30.730Z,9.90
2018-10-05T05:29:30.703Z,9.91
2018-10-05T05:30:30.693Z,9.90
2018-10-05T05:31:30.680Z,9.90
2018-10-05T05:32:30.672Z,9.90
2018-10-05T05:33:30.744Z,9.84
2018-10-05T05:34:30.658Z,9.83
2018-10-05T05:35:30.635Z,9.84
2018-10-05T05:36:30.623Z,9.89
2018-10-05T05:37:30.615Z,9.83
2018-10-05T05:38:30.619Z,9.90
2018-10-05T05:39:30.596Z,9.93
2018-10-05T05:40:30.582Z,9.91
2018-10-05T05:41:30.568Z,9.91
2018-10-05T05:42:30.554Z,9.89
2018-10-05T05:43:30.557Z,9.86
2018-10-05T05:44:30.538Z,9.84
2018-10-05T05:45:30.525Z,9.90
2018-10-05T05:46:30.512Z,9.97
2018-10-05T05:47:30.498Z,9.91
2018-10-05T05:48:30.498Z,9.93
2018-10-05T05:49:30.479Z,9.89
2018-10-05T05:50:30.470Z,9.91
2018-10-05T05:51:30.453Z,9.84
2018-10-05T05:52:30.441Z,9.81
2018-10-05T05:53:30.465Z,9.81
2018-10-05T05:54:30.616Z,9.87
2018-10-05T05:55:30.414Z,9.83
2018-10-05T05:56:30.415Z,9.93
2018-10-05T05:57:30.384Z,9.76
2018-10-05T05:58:30.390Z,9.89
2018-10-05T05:59:30.362Z,9.91
2018-10-05T06:00:30.353Z,9.94
2018-10-05T06:01:30.349Z,9.79
2018-10-05T06:02:30.340Z,9.84
2018-10-05T06:05:19.279Z,9.84
2018-10-05T06:05:38.521Z,9.84
2018-10-05T06:06:38.511Z,9.78
2018-10-05T06:07:38.498Z,9.78
2018-10-05T06:08:38.515Z,9.83
2018-10-05T06:09:38.493Z,9.79
2018-10-05T06:10:38.466Z,9.83
2018-10-05T06:11:38.455Z,9.75
2018-10-05T06:13:57.415Z,9.71
2018-10-05T06:14:47.161Z,9.78
2018-10-05T06:15:47.175Z,9.79
2018-10-05T06:16:47.151Z,9.83
2018-10-05T06:17:47.126Z,9.93
2018-10-05T06:18:47.128Z,9.87
2018-10-05T06:19:47.106Z,10.02
2018-10-05T06:20:47.097Z,10.01
2018-10-05T06:21:47.329Z,10.02
2018-10-05T06:22:47.083Z,10.05
2018-10-05T06:23:47.058Z,10.05
2018-10-05T06:24:47.061Z,10.14
2018-10-05T06:25:47.037Z,10.02
2018-10-05T06:26:47.024Z,10.07
2018-10-05T06:27:47.017Z,9.99
2018-10-05T06:28:47.005Z,10.07
2018-10-05T06:29:47.029Z,10.05
2018-10-05T06:30:47.043Z,10.09
2018-10-05T06:31:46.969Z,10.05
2018-10-05T06:32:46.956Z,10.17
2018-10-05T06:33:46.950Z,10.26
2018-10-05T06:34:46.949Z,10.26
2018-10-05T06:35:46.956Z,10.22
2018-10-05T06:36:46.913Z,10.23
2018-10-05T06:37:46.900Z,10.33
2018-10-05T06:38:46.890Z,10.25
2018-10-05T06:39:46.894Z,10.29
2018-10-05T06:40:46.873Z,10.26
2018-10-05T06:41:46.877Z,10.26
2018-10-05T06:42:46.842Z,10.25
2018-10-05T06:43:46.840Z,10.26
2018-10-05T06:44:46.844Z,10.30
2018-10-05T06:45:46.822Z,10.30
2018-10-05T06:46:46.796Z,10.30
2018-10-05T06:47:46.785Z,10.30
2018-10-05T06:48:46.786Z,10.30
2018-10-05T06:49:46.776Z,10.40
2018-10-05T06:50:46.754Z,10.40
2018-10-05T06:51:46.748Z,10.45
2018-10-05T06:52:46.742Z,10.40
2018-10-05T06:53:46.717Z,10.48
2018-10-05T06:54:46.720Z,10.52
2018-10-05T06:55:46.702Z,10.47
2018-10-05T06:56:46.698Z,10.59
2018-10-05T06:57:46.672Z,10.55
2018-10-05T06:58:46.663Z,10.64
2018-10-05T06:59:46.662Z,10.71
2018-10-05T07:00:46.649Z,10.67
2018-10-05T07:01:46.659Z,10.63
2018-10-05T07:02:46.634Z,10.64
2018-10-05T07:03:46.605Z,10.74
2018-10-05T07:04:46.615Z,10.67
2018-10-05T07:07:30.591Z,10.73
2018-10-05T07:07:54.879Z,10.74
2018-10-05T07:10:23.991Z,10.84
2018-10-05T10:15:05.890Z,17.36
2018-10-05T10:16:05.876Z,17.44
2018-10-05T10:17:05.869Z,17.48
2018-10-05T10:18:05.875Z,17.40
2018-10-05T10:19:05.846Z,17.30
2018-10-05T10:20:05.831Z,17.36
2018-10-05T10:21:05.817Z,17.44
2018-10-05T10:22:05.813Z,17.55
2018-10-05T10:23:05.820Z,17.68
2018-10-05T10:24:05.786Z,17.77
2018-10-05T10:25:05.777Z,17.96
2018-10-05T10:26:05.776Z,18.17
2018-10-05T10:27:05.752Z,18.29
2018-10-05T10:28:05.816Z,18.29
2018-10-05T10:29:05.816Z,18.21
2018-10-05T10:30:05.724Z,18.15
2018-10-05T10:31:05.724Z,18.12
2018-10-05T10:32:05.696Z,17.87
2018-10-05T10:33:05.685Z,17.87
2018-10-05T10:34:05.686Z,17.92
2018-10-05T10:35:05.663Z,17.95
2018-10-05T10:36:05.653Z,17.95
2018-10-05T10:37:05.642Z,17.97
2018-10-05T10:38:05.630Z,18.08
2018-10-05T10:39:05.632Z,18.12
2018-10-05T10:40:05.645Z,18.15
2018-10-05T10:41:05.601Z,18.14
2018-10-05T10:42:05.586Z,18.20
2018-10-05T10:43:05.572Z,18.20
2018-10-05T10:44:05.571Z,18.32
2018-10-05T10:45:05.554Z,18.29
2018-10-05T10:46:05.540Z,18.33
2018-10-05T10:47:05.528Z,18.36
2018-10-05T10:48:05.569Z,18.37
2018-10-05T10:49:05.519Z,18.21
2018-10-05T10:50:05.496Z,18.15
2018-10-05T10:51:05.486Z,18.21
2018-10-05T10:52:05.474Z,18.27
2018-10-05T10:53:05.517Z,18.29
2018-10-05T10:54:05.472Z,18.29
2018-10-05T10:55:05.469Z,18.26
2018-10-05T10:56:05.480Z,18.32
2018-10-05T10:57:05.431Z,18.45
2018-10-05T10:58:05.411Z,18.37
2018-10-05T10:59:05.409Z,18.47
2018-10-05T11:00:05.382Z,18.55
2018-10-05T11:01:05.388Z,18.41
2018-10-05T11:02:05.368Z,18.41
2018-10-05T11:03:05.361Z,18.50
2018-10-05T11:04:05.419Z,18.39
2018-10-05T11:05:05.391Z,18.55
2018-10-05T11:06:05.318Z,18.55
2018-10-05T11:07:05.306Z,18.60
2018-10-05T11:08:05.298Z,18.50
2018-10-05T11:09:05.309Z,18.47
2018-10-05T11:10:05.274Z,18.48
2018-10-05T11:11:05.332Z,18.58
2018-10-05T11:12:05.250Z,18.62
2018-10-05T11:13:05.241Z,19.02
2018-10-05T11:14:05.238Z,19.32
2018-10-05T11:15:05.216Z,19.41
2018-10-05T11:16:05.204Z,19.48
2018-10-05T11:17:05.232Z,19.47
2018-10-05T11:18:05.183Z,19.50
2018-10-05T11:19:05.184Z,19.66
2018-10-05T11:20:05.161Z,19.74
2018-10-05T11:21:05.162Z,19.61
2018-10-05T11:22:05.145Z,19.61
2018-10-05T11:23:05.183Z,19.63
2018-10-05T11:24:05.133Z,19.63
2018-10-05T11:25:05.106Z,19.63
2018-10-05T11:26:05.096Z,19.62
2018-10-05T11:27:05.089Z,19.66
2018-10-05T11:28:05.084Z,19.63
2018-10-05T11:29:05.080Z,19.48
2018-10-05T11:30:05.049Z,19.47
2018-10-05T11:31:05.041Z,19.50
2018-10-05T11:32:05.034Z,19.66
2018-10-05T11:33:05.018Z,19.77
2018-10-05T11:34:05.017Z,19.81
2018-10-05T11:35:05.028Z,19.69
2018-10-05T11:36:04.987Z,19.66
2018-10-05T11:37:04.978Z,19.66
2018-10-05T11:38:04.967Z,19.55
2018-10-05T11:39:04.965Z,19.51
2018-10-05T11:40:04.940Z,19.47
2018-10-05T11:41:04.936Z,19.44
2018-10-05T11:42:04.915Z,19.37
2018-10-05T11:43:04.955Z,19.40
2018-10-05T11:44:04.942Z,19.40
2018-10-05T11:45:04.885Z,19.36
2018-10-05T11:46:04.876Z,19.39
2018-10-05T11:47:04.860Z,19.40
2018-10-05T11:48:04.851Z,19.43
2018-10-05T11:49:04.845Z,19.33
2018-10-05T11:50:04.844Z,19.33
2018-10-05T11:51:04.831Z,19.37
2018-10-05T11:52:04.807Z,19.39
2018-10-05T11:53:04.796Z,19.36
2018-10-05T11:54:04.789Z,19.39
2018-10-05T11:55:04.784Z,19.32
2018-10-05T11:56:04.762Z,19.36
2018-10-05T11:57:04.751Z,19.37
2018-10-05T11:58:04.739Z,19.40
2018-10-05T11:59:04.745Z,19.43
2018-10-05T12:00:04.737Z,19.51
2018-10-05T12:01:04.707Z,19.50
2018-10-05T12:02:04.714Z,19.43
2018-10-05T12:03:04.682Z,19.36
2018-10-05T12:04:04.678Z,19.41
2018-10-05T12:05:04.683Z,19.31
2018-10-05T12:06:04.665Z,19.39
2018-10-05T12:07:04.642Z,19.44
2018-10-05T12:08:04.629Z,19.37
2018-10-05T12:09:04.624Z,19.43
2018-10-05T12:10:04.621Z,19.66
2018-10-05T12:11:04.651Z,19.59
2018-10-05T12:12:04.587Z,19.68
2018-10-05T12:13:04.571Z,19.61
2018-10-05T12:14:04.593Z,19.55
2018-10-05T12:15:04.573Z,19.63
2018-10-05T12:16:04.537Z,19.61
2018-10-05T12:17:04.543Z,19.74
2018-10-05T12:18:04.531Z,19.84
2018-10-05T12:19:04.512Z,20.20
2018-10-05T12:20:04.546Z,20.20
2018-10-05T12:21:04.505Z,20.18
2018-10-05T12:22:04.471Z,20.02
2018-10-05T12:23:04.478Z,19.87
2018-10-05T12:24:04.451Z,19.92
2018-10-05T12:25:04.512Z,19.92
2018-10-05T12:26:04.432Z,19.95
2018-10-05T12:27:04.418Z,19.98
2018-10-05T12:28:04.416Z,19.98
2018-10-05T12:29:04.406Z,19.87
2018-10-05T12:30:04.404Z,20.01
2018-10-05T12:31:04.409Z,20.11
2018-10-05T12:32:04.369Z,20.01
2018-10-05T12:33:04.359Z,20.03
2018-10-05T12:34:04.357Z,20.10
2018-10-05T12:35:04.338Z,20.21
2018-10-05T12:36:04.318Z,20.14
2018-10-05T12:37:04.346Z,20.31
2018-10-05T12:38:04.294Z,20.33
2018-10-05T12:39:04.289Z,20.35
2018-10-05T12:40:04.287Z,20.47
2018-10-05T12:41:04.262Z,20.50
2018-10-05T12:42:04.260Z,21.29
2018-10-05T12:43:04.239Z,22.30
2018-10-05T12:44:04.229Z,23.31
2018-10-05T12:45:04.231Z,24.02
2018-10-05T12:46:04.208Z,24.65
2018-10-05T12:47:04.193Z,24.30
2018-10-05T12:48:04.183Z,24.40
2018-10-05T12:49:04.175Z,24.52
2018-10-05T12:50:04.212Z,24.13
2018-10-05T12:51:04.150Z,23.55
2018-10-05T12:52:04.139Z,22.73
2018-10-05T12:53:04.132Z,22.09
2018-10-05T12:54:04.118Z,21.72
2018-10-05T12:55:04.116Z,21.32
2018-10-05T12:56:04.097Z,20.99
2018-10-05T12:57:04.086Z,20.98
2018-10-05T12:58:04.090Z,20.82
2018-10-05T12:59:04.065Z,20.73
2018-10-05T13:00:04.070Z,20.73
2018-10-05T13:01:04.041Z,20.79
2018-10-05T13:02:04.033Z,20.77
2018-10-05T13:03:04.028Z,20.85
2018-10-05T13:04:04.009Z,20.79
2018-10-05T13:05:04.092Z,20.82
2018-10-05T13:06:04.041Z,20.73
2018-10-05T13:07:03.978Z,20.80
2018-10-05T13:08:03.972Z,20.79
2018-10-05T13:09:03.956Z,20.82
2018-10-05T13:10:03.941Z,20.72
2018-10-05T13:11:03.943Z,20.79
2018-10-05T13:12:03.925Z,20.73
2018-10-05T13:13:03.970Z,20.77
2018-10-05T13:14:03.909Z,20.73
2018-10-05T13:15:03.893Z,20.73
2018-10-05T13:16:03.895Z,20.74
2018-10-05T13:17:03.869Z,20.64
2018-10-05T13:18:03.892Z,20.62
2018-10-05T13:19:03.858Z,20.64
2018-10-05T13:20:03.859Z,20.62
2018-10-05T13:21:03.858Z,20.67
2018-10-05T13:22:03.900Z,20.67
2018-10-05T13:23:03.837Z,20.64
2018-10-05T13:24:03.818Z,20.76
2018-10-05T13:25:03.795Z,20.70
2018-10-05T13:26:03.785Z,20.72
2018-10-05T13:27:03.802Z,20.70
2018-10-05T13:28:03.746Z,20.76
2018-10-05T13:29:03.737Z,20.80
2018-10-05T13:30:03.728Z,20.77
2018-10-05T13:31:03.726Z,20.79
2018-10-05T13:32:03.705Z,20.79
2018-10-05T13:33:03.714Z,20.70
2018-10-05T13:34:03.730Z,20.85
2018-10-05T13:35:03.670Z,20.88
2018-10-05T13:36:03.716Z,20.95
2018-10-05T13:37:03.654Z,20.91
2018-10-05T13:38:03.646Z,20.91
2018-10-05T13:39:03.632Z,20.87
2018-10-05T13:40:03.618Z,20.98
2018-10-05T13:41:03.613Z,20.94
2018-10-05T13:42:03.722Z,20.98
2018-10-05T13:43:03.592Z,20.98
2018-10-05T13:44:03.577Z,21.03
2018-10-05T13:45:03.560Z,20.98
2018-10-05T13:46:03.560Z,21.12
2018-10-05T13:47:03.541Z,21.07
2018-10-05T13:48:03.535Z,21.10
2018-10-05T13:49:03.517Z,21.10
2018-10-05T13:50:03.510Z,21.14
2018-10-05T13:51:03.506Z,21.13
2018-10-05T13:52:03.493Z,21.13
2018-10-05T13:53:03.476Z,21.06
2018-10-05T13:54:03.465Z,21.10
2018-10-05T13:55:03.454Z,21.10
2018-10-05T13:56:03.457Z,21.04
2018-10-05T13:57:03.431Z,21.14
2018-10-05T13:58:03.418Z,21.16
2018-10-05T13:59:03.438Z,21.25
2018-10-05T14:00:03.412Z,21.29
2018-10-05T14:01:03.396Z,21.28
2018-10-05T14:02:03.376Z,21.22
2018-10-05T14:03:03.371Z,21.28
2018-10-05T14:04:03.383Z,21.27
2018-10-05T14:05:03.351Z,21.27
2018-10-05T14:06:03.373Z,21.31
2018-10-05T14:07:03.342Z,21.27
2018-10-05T14:08:03.309Z,21.27
2018-10-05T14:09:03.298Z,21.31
2018-10-05T14:10:03.289Z,21.27
2018-10-05T14:11:03.293Z,21.31
2018-10-05T14:12:03.267Z,21.42
2018-10-05T14:13:03.259Z,21.29
2018-10-05T14:14:03.245Z,21.38
2018-10-05T14:15:03.236Z,21.40
2018-10-05T14:16:03.237Z,21.32
2018-10-05T14:17:03.214Z,21.35
2018-10-05T14:18:03.207Z,21.40
2018-10-05T14:19:03.233Z,21.34
2018-10-05T14:20:03.218Z,21.31
2018-10-05T14:21:03.190Z,21.31
2018-10-05T14:22:03.158Z,21.27
2018-10-05T14:23:03.143Z,21.24
2018-10-05T14:24:03.133Z,21.34
2018-10-05T14:25:03.121Z,21.35
2018-10-05T14:26:03.120Z,21.27
2018-10-05T14:27:03.105Z,21.31
2018-10-05T14:28:03.099Z,21.37
2018-10-05T14:29:03.091Z,21.31
2018-10-05T14:30:03.064Z,21.31
2018-10-05T14:31:03.121Z,21.34
2018-10-05T14:32:03.041Z,21.37
2018-10-05T14:33:03.032Z,21.34
2018-10-05T14:34:03.020Z,21.46
2018-10-05T14:35:03.011Z,21.35
2018-10-05T14:36:02.999Z,21.40
2018-10-05T14:37:03.002Z,21.35
2018-10-05T14:38:03.040Z,21.42
2018-10-05T14:39:02.966Z,21.42
2018-10-05T14:40:02.955Z,21.43
2018-10-05T14:41:02.949Z,21.38
2018-10-05T14:42:02.944Z,21.49
2018-10-05T14:43:02.922Z,21.42
2018-10-05T14:44:02.915Z,21.42
2018-10-05T14:45:02.913Z,21.44
2018-10-05T14:46:02.897Z,21.42
2018-10-05T14:47:02.891Z,21.40
2018-10-05T14:48:02.874Z,21.42
2018-10-05T14:49:02.858Z,21.50
2018-10-05T14:50:02.848Z,21.52
2018-10-05T14:51:02.836Z,21.43
2018-10-05T14:52:02.849Z,21.43
2018-10-05T14:53:02.810Z,21.42
2018-10-05T14:54:02.799Z,21.42
2018-10-05T14:55:02.791Z,21.44
2018-10-05T14:56:02.777Z,21.58
2018-10-05T14:57:02.849Z,21.56
2018-10-05T14:58:02.755Z,21.58
2018-10-05T14:59:02.755Z,21.56
2018-10-05T15:00:02.734Z,21.56
2018-10-05T15:01:02.722Z,21.53
2018-10-05T15:02:02.724Z,21.52
2018-10-05T15:03:02.718Z,21.56
2018-10-05T15:04:02.689Z,21.53
2018-10-05T15:05:02.677Z,21.46
2018-10-05T15:06:02.664Z,21.47
2018-10-05T15:07:02.743Z,21.43
2018-10-05T15:08:02.653Z,21.49
2018-10-05T15:09:02.650Z,21.54
2018-10-05T15:10:02.624Z,21.47
2018-10-05T15:11:02.609Z,21.50
2018-10-05T15:12:02.609Z,21.50
2018-10-05T15:13:02.626Z,21.46
2018-10-05T15:14:02.582Z,21.59
2018-10-05T15:15:02.575Z,21.53
2018-10-05T15:16:02.553Z,21.61
2018-10-05T15:17:02.560Z,21.47
2018-10-05T15:18:02.533Z,21.47
2018-10-05T15:19:02.523Z,21.44
2018-10-05T15:20:02.538Z,21.53
2018-10-05T15:21:02.511Z,21.53
2018-10-05T15:22:02.537Z,21.53
2018-10-05T15:23:02.475Z,21.50
2018-10-05T15:24:02.469Z,21.42
2018-10-05T15:25:02.453Z,21.46
2018-10-05T15:26:02.449Z,21.43
2018-10-05T15:27:02.440Z,21.47
2018-10-05T15:28:02.421Z,21.43
2018-10-05T15:29:02.413Z,21.47
2018-10-05T15:30:02.402Z,21.47
2018-10-05T15:31:02.389Z,21.43
2018-10-05T15:32:02.389Z,21.42
2018-10-05T15:33:02.365Z,21.40
2018-10-05T15:34:02.354Z,21.35
2018-10-05T15:35:02.346Z,21.44
2018-10-05T15:36:02.335Z,21.40
2018-10-05T15:37:02.334Z,21.42
2018-10-05T15:38:02.317Z,21.46
2018-10-05T15:39:02.299Z,21.37
2018-10-05T15:40:02.288Z,21.49
2018-10-05T15:41:02.277Z,21.38
2018-10-05T15:42:02.267Z,21.38
2018-10-05T15:43:02.275Z,21.38
2018-10-05T15:44:02.245Z,21.35
2018-10-05T15:45:02.233Z,21.29
2018-10-05T15:46:02.231Z,21.35
2018-10-05T15:47:02.212Z,21.31
2018-10-05T15:48:02.209Z,21.29
2018-10-05T15:49:02.191Z,21.27
2018-10-05T15:50:02.175Z,21.25
2018-10-05T15:52:17.136Z,21.27
2018-10-05T15:53:10.879Z,21.21
2018-10-05T15:54:10.868Z,21.22
2018-10-05T15:55:10.862Z,21.24
2018-10-05T15:56:10.846Z,21.19
2018-10-05T15:57:10.840Z,21.16
2018-10-05T15:58:10.837Z,21.12
2018-10-05T15:59:10.848Z,21.09
2018-10-05T16:00:10.809Z,21.14
2018-10-05T16:02:34.749Z,21.13
2018-10-05T16:03:19.523Z,21.07
2018-10-05T16:04:19.505Z,21.04
2018-10-05T16:05:19.534Z,20.98
2018-10-05T16:06:19.464Z,20.98
2018-10-05T16:07:19.454Z,20.98
2018-10-05T16:08:19.463Z,20.99
2018-10-05T16:09:19.432Z,21.03
2018-10-05T16:10:19.421Z,20.89
2018-10-05T16:11:19.413Z,20.89
2018-10-05T16:12:19.452Z,20.88
2018-10-05T16:13:19.410Z,20.85
2018-10-05T16:14:19.378Z,20.80
2018-10-05T16:15:19.375Z,20.76
2018-10-05T16:16:19.379Z,20.82
2018-10-05T16:17:19.349Z,20.73
2018-10-05T16:18:19.416Z,20.70
2018-10-05T16:19:19.324Z,20.70
2018-10-05T16:20:19.321Z,20.64
2018-10-05T16:21:19.323Z,20.72
2018-10-05T16:22:19.312Z,20.67
2018-10-05T16:23:19.291Z,20.66
2018-10-05T16:24:19.270Z,20.62
2018-10-05T16:25:19.263Z,20.55
2018-10-05T16:26:19.248Z,20.54